This is the latest recevied weather packets stored in our database for station/object PY5KT-13. If no packets are shown the sender has not sent any weather packets the latest 10 day(s).
| Time | Temp. | Humidity | Pressure | Rain* | Wind** | Luminosity | Snow |
|---|---|---|---|---|---|---|---|
| 1777991118 | 27.78° C | 58% | 1024.2 hPa | 0 mm | - | 513 W/m² | - |
| 1777990816 | 26.67° C | 60% | 1024.3 hPa | 0 mm | - | 527 W/m² | - |
| 1777990514 | 26.67° C | 62% | 1024.3 hPa | 0 mm | - | 396 W/m² | - |
| 1777989910 | 26.11° C | 63% | 1024.3 hPa | 0 mm | - | 499 W/m² | - |
| 1777989608 | 26.11° C | 64% | 1024.4 hPa | 0 mm | - | 479 W/m² | - |
| 1777989306 | 26.11° C | 63% | 1024.4 hPa | 0 mm | - | 414 W/m² | - |
| 1777989004 | 25.56° C | 66% | 1024.4 hPa | 0 mm | - | 519 W/m² | - |
| 1777988703 | 25.56° C | 66% | 1024.4 hPa | 0 mm | - | 520 W/m² | - |
| 1777988401 | 25° C | 69% | 1024.4 hPa | 0 mm | - | 450 W/m² | - |
| 1777988100 | 25.56° C | 67% | 1024.4 hPa | 0 mm | - | 396 W/m² | - |
| 1777987798 | 26.11° C | 65% | 1024.4 hPa | 0 mm | - | 420 W/m² | - |
| 1777987496 | 25.56° C | 69% | 1024.3 hPa | 0 mm | - | 421 W/m² | - |
| 1777987194 | 24.44° C | 71% | 1024.3 hPa | 0 mm | - | 415 W/m² | - |
| 1777986892 | 24.44° C | 72% | 1024.3 hPa | 0 mm | - | 410 W/m² | - |
| 1777986590 | 24.44° C | 71% | 1024.3 hPa | 0 mm | - | 363 W/m² | - |
| 1777986287 | 25.56° C | 68% | 1024.3 hPa | 0 mm | - | 397 W/m² | - |
| 1777985986 | 25° C | 69% | 1024.2 hPa | 0 mm | - | 383 W/m² | - |
| 1777985683 | 25° C | 67% | 1024.2 hPa | 0 mm | - | 384 W/m² | - |
| 1777985381 | 25° C | 69% | 1024.2 hPa | 0 mm | - | 377 W/m² | - |
| 1777985079 | 24.44° C | 71% | 1024.2 hPa | 0 mm | - | 370 W/m² | - |
| 1777984777 | 23.89° C | 74% | 1024.1 hPa | 0 mm | - | 338 W/m² | - |
| 1777984474 | 23.33° C | 75% | 1024 hPa | 0 mm | - | 339 W/m² | - |
| 1777984172 | 22.78° C | 76% | 1024 hPa | 0 mm | - | 321 W/m² | - |
| 1777983870 | 23.33° C | 75% | 1024 hPa | 0 mm | - | 321 W/m² | - |
| 1777983567 | 22.78° C | 76% | 1023.9 hPa | 0 mm | - | 330 W/m² | - |
* Rain latest hour (hover to see other rain measurements)
** Current wind speed in m/s (hover to see current wind gust speed)